sensor_id;sensor_type;location;lat;lon;timestamp;pressure;altitude;pressure_sealevel;temperature
70831;BMP180;58451;51.550;7.208;2023-07-13T00:00:10;100731.60;;;17.50
70831;BMP180;58451;51.550;7.208;2023-07-13T00:01:46;100733.00;;;17.50
70831;BMP180;58451;51.550;7.208;2023-07-13T00:03:20;100736.60;;;17.42
70831;BMP180;58451;51.550;7.208;2023-07-13T00:04:52;100741.60;;;17.40
70831;BMP180;58451;51.550;7.208;2023-07-13T00:06:23;100743.80;;;17.40
70831;BMP180;58451;51.550;7.208;2023-07-13T00:07:55;100745.40;;;17.40
70831;BMP180;58451;51.550;7.208;2023-07-13T00:09:26;100747.60;;;17.38
70831;BMP180;58451;51.550;7.208;2023-07-13T00:10:58;100750.40;;;17.30
70831;BMP180;58451;51.550;7.208;2023-07-13T00:12:35;100746.20;;;17.30
70831;BMP180;58451;51.550;7.208;2023-07-13T00:14:07;100748.40;;;17.30
70831;BMP180;58451;51.550;7.208;2023-07-13T00:15:39;100749.20;;;17.24
70831;BMP180;58451;51.550;7.208;2023-07-13T00:17:11;100748.60;;;17.20
70831;BMP180;58451;51.550;7.208;2023-07-13T00:18:45;100742.40;;;17.20
70831;BMP180;58451;51.550;7.208;2023-07-13T00:20:17;100745.40;;;17.12
70831;BMP180;58451;51.550;7.208;2023-07-13T00:21:48;100741.60;;;17.10
70831;BMP180;58451;51.550;7.208;2023-07-13T00:23:19;100744.40;;;17.08
70831;BMP180;58451;51.550;7.208;2023-07-13T00:24:52;100748.60;;;17.00
70831;BMP180;58451;51.550;7.208;2023-07-13T00:26:24;100746.80;;;17.00
70831;BMP180;58451;51.550;7.208;2023-07-13T00:27:56;100746.00;;;17.00
70831;BMP180;58451;51.550;7.208;2023-07-13T00:29:29;100743.40;;;16.90
70831;BMP180;58451;51.550;7.208;2023-07-13T00:31:01;100743.80;;;16.90
70831;BMP180;58451;51.550;7.208;2023-07-13T00:32:33;100740.00;;;16.86
70831;BMP180;58451;51.550;7.208;2023-07-13T00:34:04;100735.20;;;16.80
70831;BMP180;58451;51.550;7.208;2023-07-13T00:35:35;100744.80;;;16.80
70831;BMP180;58451;51.550;7.208;2023-07-13T00:37:07;100744.00;;;16.76
70831;BMP180;58451;51.550;7.208;2023-07-13T00:38:38;100745.20;;;16.70
70831;BMP180;58451;51.550;7.208;2023-07-13T00:40:14;100742.60;;;16.70
70831;BMP180;58451;51.550;7.208;2023-07-13T00:41:45;100743.40;;;16.64
70831;BMP180;58451;51.550;7.208;2023-07-13T00:43:20;100742.40;;;16.60
70831;BMP180;58451;51.550;7.208;2023-07-13T00:46:57;100739.60;;;16.50
70831;BMP180;58451;51.550;7.208;2023-07-13T00:48:34;100739.20;;;16.50
70831;BMP180;58451;51.550;7.208;2023-07-13T00:50:10;100737.60;;;16.44
70831;BMP180;58451;51.550;7.208;2023-07-13T00:51:55;100741.40;;;16.40
70831;BMP180;58451;51.550;7.208;2023-07-13T00:53:29;100741.20;;;16.40
70831;BMP180;58451;51.550;7.208;2023-07-13T00:55:03;100738.80;;;16.30
70831;BMP180;58451;51.550;7.208;2023-07-13T00:56:36;100738.00;;;16.30
70831;BMP180;58451;51.550;7.208;2023-07-13T00:58:08;100740.20;;;16.30
70831;BMP180;58451;51.550;7.208;2023-07-13T00:59:43;100740.40;;;16.20
70831;BMP180;58451;51.550;7.208;2023-07-13T01:01:16;100746.80;;;16.20
70831;BMP180;58451;51.550;7.208;2023-07-13T01:02:48;100746.80;;;16.20
70831;BMP180;58451;51.550;7.208;2023-07-13T01:04:20;100741.00;;;16.18
70831;BMP180;58451;51.550;7.208;2023-07-13T01:05:51;100743.20;;;16.10
70831;BMP180;58451;51.550;7.208;2023-07-13T01:07:25;100740.80;;;16.10
70831;BMP180;58451;51.550;7.208;2023-07-13T01:08:58;100736.00;;;16.10
70831;BMP180;58451;51.550;7.208;2023-07-13T01:10:31;100740.20;;;16.10
70831;BMP180;58451;51.550;7.208;2023-07-13T01:12:09;100743.20;;;16.04
70831;BMP180;58451;51.550;7.208;2023-07-13T01:13:41;100740.80;;;16.00
70831;BMP180;58451;51.550;7.208;2023-07-13T01:15:45;100741.00;;;16.00
70831;BMP180;58451;51.550;7.208;2023-07-13T01:17:16;100735.60;;;16.00
70831;BMP180;58451;51.550;7.208;2023-07-13T01:18:47;100729.80;;;15.98
70831;BMP180;58451;51.550;7.208;2023-07-13T01:20:20;100730.00;;;15.90
70831;BMP180;58451;51.550;7.208;2023-07-13T01:21:53;100730.40;;;15.90
70831;BMP180;58451;51.550;7.208;2023-07-13T01:23:27;100735.80;;;15.90
70831;BMP180;58451;51.550;7.208;2023-07-13T01:24:59;100735.00;;;15.90
70831;BMP180;58451;51.550;7.208;2023-07-13T01:26:30;100729.60;;;15.82
70831;BMP180;58451;51.550;7.208;2023-07-13T01:28:07;100737.80;;;15.80
70831;BMP180;58451;51.550;7.208;2023-07-13T01:29:44;100735.60;;;15.80
70831;BMP180;58451;51.550;7.208;2023-07-13T01:31:17;100731.80;;;15.80
70831;BMP180;58451;51.550;7.208;2023-07-13T01:32:48;100734.20;;;15.80
70831;BMP180;58451;51.550;7.208;2023-07-13T01:34:19;100735.60;;;15.74
70831;BMP180;58451;51.550;7.208;2023-07-13T01:35:50;100732.80;;;15.70
70831;BMP180;58451;51.550;7.208;2023-07-13T01:37:25;100728.60;;;15.70
70831;BMP180;58451;51.550;7.208;2023-07-13T01:38:56;100727.80;;;15.70
70831;BMP180;58451;51.550;7.208;2023-07-13T01:40:29;100734.40;;;15.70
70831;BMP180;58451;51.550;7.208;2023-07-13T01:42:01;100737.60;;;15.66
70831;BMP180;58451;51.550;7.208;2023-07-13T01:43:33;100735.40;;;15.60
70831;BMP180;58451;51.550;7.208;2023-07-13T01:45:05;100734.20;;;15.60
70831;BMP180;58451;51.550;7.208;2023-07-13T01:46:36;100731.60;;;15.60
70831;BMP180;58451;51.550;7.208;2023-07-13T01:48:07;100735.40;;;15.56
70831;BMP180;58451;51.550;7.208;2023-07-13T01:49:38;100733.40;;;15.50
70831;BMP180;58451;51.550;7.208;2023-07-13T01:51:09;100736.60;;;15.50
70831;BMP180;58451;51.550;7.208;2023-07-13T01:52:41;100740.40;;;15.50
70831;BMP180;58451;51.550;7.208;2023-07-13T01:54:12;100742.60;;;15.50
70831;BMP180;58451;51.550;7.208;2023-07-13T01:55:44;100743.20;;;15.46
70831;BMP180;58451;51.550;7.208;2023-07-13T01:57:15;100744.60;;;15.40
70831;BMP180;58451;51.550;7.208;2023-07-13T01:58:46;100743.80;;;15.40
70831;BMP180;58451;51.550;7.208;2023-07-13T02:00:18;100748.40;;;15.40
70831;BMP180;58451;51.550;7.208;2023-07-13T02:01:52;100747.00;;;15.30
70831;BMP180;58451;51.550;7.208;2023-07-13T02:03:24;100748.40;;;15.30
70831;BMP180;58451;51.550;7.208;2023-07-13T02:04:56;100749.60;;;15.30
70831;BMP180;58451;51.550;7.208;2023-07-13T02:06:27;100747.00;;;15.30
70831;BMP180;58451;51.550;7.208;2023-07-13T02:07:59;100746.00;;;15.30
70831;BMP180;58451;51.550;7.208;2023-07-13T02:09:30;100747.40;;;15.30
70831;BMP180;58451;51.550;7.208;2023-07-13T02:11:03;100749.80;;;15.30
70831;BMP180;58451;51.550;7.208;2023-07-13T02:12:36;100752.80;;;15.30
70831;BMP180;58451;51.550;7.208;2023-07-13T02:14:07;100748.40;;;15.30
70831;BMP180;58451;51.550;7.208;2023-07-13T02:15:39;100750.80;;;15.30
70831;BMP180;58451;51.550;7.208;2023-07-13T02:17:14;100748.60;;;15.30
70831;BMP180;58451;51.550;7.208;2023-07-13T02:18:45;100748.60;;;15.30
70831;BMP180;58451;51.550;7.208;2023-07-13T02:20:16;100751.20;;;15.30
70831;BMP180;58451;51.550;7.208;2023-07-13T02:21:47;100747.20;;;15.30
70831;BMP180;58451;51.550;7.208;2023-07-13T02:23:19;100747.40;;;15.30
70831;BMP180;58451;51.550;7.208;2023-07-13T02:24:51;100746.60;;;15.30
70831;BMP180;58451;51.550;7.208;2023-07-13T02:26:22;100750.80;;;15.30
70831;BMP180;58451;51.550;7.208;2023-07-13T02:27:53;100746.40;;;15.26
70831;BMP180;58451;51.550;7.208;2023-07-13T02:29:25;100745.40;;;15.22
70831;BMP180;58451;51.550;7.208;2023-07-13T02:31:07;100748.20;;;15.20
70831;BMP180;58451;51.550;7.208;2023-07-13T02:32:39;100744.20;;;15.20
70831;BMP180;58451;51.550;7.208;2023-07-13T02:34:10;100747.60;;;15.20
70831;BMP180;58451;51.550;7.208;2023-07-13T02:35:42;100747.20;;;15.20
70831;BMP180;58451;51.550;7.208;2023-07-13T02:37:13;100748.40;;;15.20
70831;BMP180;58451;51.550;7.208;2023-07-13T02:38:44;100745.40;;;15.20
70831;BMP180;58451;51.550;7.208;2023-07-13T02:40:15;100742.20;;;15.20
70831;BMP180;58451;51.550;7.208;2023-07-13T02:41:47;100742.00;;;15.20
70831;BMP180;58451;51.550;7.208;2023-07-13T02:43:18;100739.80;;;15.20
70831;BMP180;58451;51.550;7.208;2023-07-13T02:44:51;100741.40;;;15.20
70831;BMP180;58451;51.550;7.208;2023-07-13T02:46:22;100744.00;;;15.20
70831;BMP180;58451;51.550;7.208;2023-07-13T02:47:55;100742.80;;;15.20
70831;BMP180;58451;51.550;7.208;2023-07-13T02:49:26;100743.80;;;15.20
70831;BMP180;58451;51.550;7.208;2023-07-13T02:50:57;100748.00;;;15.20
70831;BMP180;58451;51.550;7.208;2023-07-13T02:52:28;100752.00;;;15.20
70831;BMP180;58451;51.550;7.208;2023-07-13T02:54:02;100747.80;;;15.16
70831;BMP180;58451;51.550;7.208;2023-07-13T02:55:33;100748.20;;;15.12
70831;BMP180;58451;51.550;7.208;2023-07-13T02:57:05;100745.80;;;15.10
70831;BMP180;58451;51.550;7.208;2023-07-13T02:58:36;100742.20;;;15.10
70831;BMP180;58451;51.550;7.208;2023-07-13T03:00:10;100746.40;;;15.10
70831;BMP180;58451;51.550;7.208;2023-07-13T03:01:41;100750.20;;;15.10
70831;BMP180;58451;51.550;7.208;2023-07-13T03:03:14;100750.00;;;15.10
70831;BMP180;58451;51.550;7.208;2023-07-13T03:04:45;100747.00;;;15.10
70831;BMP180;58451;51.550;7.208;2023-07-13T03:06:18;100751.00;;;15.10
70831;BMP180;58451;51.550;7.208;2023-07-13T03:07:53;100755.20;;;15.04
70831;BMP180;58451;51.550;7.208;2023-07-13T03:09:26;100755.20;;;15.00
70831;BMP180;58451;51.550;7.208;2023-07-13T03:11:06;100752.40;;;15.00
70831;BMP180;58451;51.550;7.208;2023-07-13T03:12:38;100757.60;;;15.00
70831;BMP180;58451;51.550;7.208;2023-07-13T03:14:12;100760.80;;;15.00
70831;BMP180;58451;51.550;7.208;2023-07-13T03:15:43;100761.60;;;15.00
70831;BMP180;58451;51.550;7.208;2023-07-13T03:17:14;100762.60;;;15.00
70831;BMP180;58451;51.550;7.208;2023-07-13T03:18:47;100762.40;;;15.00
70831;BMP180;58451;51.550;7.208;2023-07-13T03:20:19;100763.00;;;15.00
70831;BMP180;58451;51.550;7.208;2023-07-13T03:21:50;100769.80;;;14.98
70831;BMP180;58451;51.550;7.208;2023-07-13T03:23:22;100763.20;;;15.00
70831;BMP180;58451;51.550;7.208;2023-07-13T03:24:55;100760.60;;;15.00
70831;BMP180;58451;51.550;7.208;2023-07-13T03:26:26;100761.20;;;15.00
70831;BMP180;58451;51.550;7.208;2023-07-13T03:27:58;100764.00;;;15.00
70831;BMP180;58451;51.550;7.208;2023-07-13T03:29:29;100764.60;;;15.00
70831;BMP180;58451;51.550;7.208;2023-07-13T03:31:17;100767.80;;;15.00
70831;BMP180;58451;51.550;7.208;2023-07-13T03:32:49;100767.60;;;15.00
70831;BMP180;58451;51.550;7.208;2023-07-13T03:34:22;100769.40;;;15.00
70831;BMP180;58451;51.550;7.208;2023-07-13T03:35:53;100770.40;;;15.00
70831;BMP180;58451;51.550;7.208;2023-07-13T03:37:25;100766.40;;;15.00
70831;BMP180;58451;51.550;7.208;2023-07-13T03:38:59;100766.60;;;15.00
70831;BMP180;58451;51.550;7.208;2023-07-13T03:40:37;100763.40;;;15.00
70831;BMP180;58451;51.550;7.208;2023-07-13T03:42:08;100766.80;;;15.00
70831;BMP180;58451;51.550;7.208;2023-07-13T03:43:40;100767.80;;;15.00
70831;BMP180;58451;51.550;7.208;2023-07-13T03:45:11;100768.40;;;15.00
70831;BMP180;58451;51.550;7.208;2023-07-13T03:46:42;100771.60;;;15.00
70831;BMP180;58451;51.550;7.208;2023-07-13T03:48:14;100774.60;;;15.00
70831;BMP180;58451;51.550;7.208;2023-07-13T03:49:45;100778.80;;;15.00
70831;BMP180;58451;51.550;7.208;2023-07-13T03:51:18;100781.80;;;15.00
70831;BMP180;58451;51.550;7.208;2023-07-13T03:52:50;100782.40;;;15.00
70831;BMP180;58451;51.550;7.208;2023-07-13T03:54:21;100784.00;;;15.00
70831;BMP180;58451;51.550;7.208;2023-07-13T03:55:53;100784.40;;;15.00
70831;BMP180;58451;51.550;7.208;2023-07-13T03:57:24;100784.40;;;15.02
70831;BMP180;58451;51.550;7.208;2023-07-13T03:58:55;100787.40;;;15.10
70831;BMP180;58451;51.550;7.208;2023-07-13T04:00:27;100786.40;;;15.10
70831;BMP180;58451;51.550;7.208;2023-07-13T04:01:58;100789.40;;;15.10
70831;BMP180;58451;51.550;7.208;2023-07-13T04:03:30;100789.00;;;15.20
70831;BMP180;58451;51.550;7.208;2023-07-13T04:05:04;100791.40;;;15.20
70831;BMP180;58451;51.550;7.208;2023-07-13T04:06:35;100788.00;;;15.28
70831;BMP180;58451;51.550;7.208;2023-07-13T04:08:06;100793.40;;;15.30
70831;BMP180;58451;51.550;7.208;2023-07-13T04:09:38;100789.80;;;15.40
70831;BMP180;58451;51.550;7.208;2023-07-13T04:11:09;100791.60;;;15.40
70831;BMP180;58451;51.550;7.208;2023-07-13T04:12:40;100795.60;;;15.50
70831;BMP180;58451;51.550;7.208;2023-07-13T04:14:11;100798.20;;;15.50
70831;BMP180;58451;51.550;7.208;2023-07-13T04:15:42;100796.60;;;15.54
70831;BMP180;58451;51.550;7.208;2023-07-13T04:17:14;100802.20;;;15.60
70831;BMP180;58451;51.550;7.208;2023-07-13T04:18:47;100800.20;;;15.64
70831;BMP180;58451;51.550;7.208;2023-07-13T04:20:18;100798.40;;;15.70
70831;BMP180;58451;51.550;7.208;2023-07-13T04:21:51;100797.80;;;15.70
70831;BMP180;58451;51.550;7.208;2023-07-13T04:23:22;100800.00;;;15.76
70831;BMP180;58451;51.550;7.208;2023-07-13T04:24:54;100799.80;;;15.80
70831;BMP180;58451;51.550;7.208;2023-07-13T04:26:25;100800.40;;;15.80
70831;BMP180;58451;51.550;7.208;2023-07-13T04:27:57;100800.60;;;15.80
70831;BMP180;58451;51.550;7.208;2023-07-13T04:29:28;100800.80;;;15.80
70831;BMP180;58451;51.550;7.208;2023-07-13T04:30:59;100800.80;;;15.80
70831;BMP180;58451;51.550;7.208;2023-07-13T04:32:30;100798.80;;;15.90
70831;BMP180;58451;51.550;7.208;2023-07-13T04:34:02;100803.60;;;15.90
70831;BMP180;58451;51.550;7.208;2023-07-13T04:35:34;100802.40;;;15.90
70831;BMP180;58451;51.550;7.208;2023-07-13T04:37:05;100803.80;;;16.00
70831;BMP180;58451;51.550;7.208;2023-07-13T04:38:37;100803.40;;;16.00
70831;BMP180;58451;51.550;7.208;2023-07-13T04:40:08;100806.00;;;16.10
70831;BMP180;58451;51.550;7.208;2023-07-13T04:41:43;100807.60;;;16.10
70831;BMP180;58451;51.550;7.208;2023-07-13T04:43:14;100809.20;;;16.18
70831;BMP180;58451;51.550;7.208;2023-07-13T04:44:51;100809.20;;;16.20
70831;BMP180;58451;51.550;7.208;2023-07-13T04:46:23;100815.60;;;16.20
70831;BMP180;58451;51.550;7.208;2023-07-13T04:47:54;100817.40;;;16.20
70831;BMP180;58451;51.550;7.208;2023-07-13T04:49:25;100816.40;;;16.30
70831;BMP180;58451;51.550;7.208;2023-07-13T04:50:58;100815.40;;;16.30
70831;BMP180;58451;51.550;7.208;2023-07-13T04:52:29;100819.00;;;16.30
70831;BMP180;58451;51.550;7.208;2023-07-13T04:54:01;100822.00;;;16.40
70831;BMP180;58451;51.550;7.208;2023-07-13T04:55:32;100816.40;;;16.40
70831;BMP180;58451;51.550;7.208;2023-07-13T04:57:05;100819.20;;;16.40
70831;BMP180;58451;51.550;7.208;2023-07-13T04:58:39;100819.40;;;16.40
70831;BMP180;58451;51.550;7.208;2023-07-13T05:00:12;100825.00;;;16.40
70831;BMP180;58451;51.550;7.208;2023-07-13T05:01:44;100825.80;;;16.32
70831;BMP180;58451;51.550;7.208;2023-07-13T05:03:16;100824.20;;;16.40
70831;BMP180;58451;51.550;7.208;2023-07-13T05:04:48;100825.60;;;16.40
70831;BMP180;58451;51.550;7.208;2023-07-13T05:06:20;100824.00;;;16.40
70831;BMP180;58451;51.550;7.208;2023-07-13T05:07:53;100824.20;;;16.40
70831;BMP180;58451;51.550;7.208;2023-07-13T05:09:24;100822.80;;;16.50
70831;BMP180;58451;51.550;7.208;2023-07-13T05:10:55;100821.00;;;16.50
70831;BMP180;58451;51.550;7.208;2023-07-13T05:12:27;100823.00;;;16.50
70831;BMP180;58451;51.550;7.208;2023-07-13T05:13:58;100829.20;;;16.50
70831;BMP180;58451;51.550;7.208;2023-07-13T05:15:29;100827.60;;;16.50
70831;BMP180;58451;51.550;7.208;2023-07-13T05:17:00;100828.00;;;16.50
70831;BMP180;58451;51.550;7.208;2023-07-13T05:18:32;100827.80;;;16.50
70831;BMP180;58451;51.550;7.208;2023-07-13T05:20:03;100830.20;;;16.50
70831;BMP180;58451;51.550;7.208;2023-07-13T05:21:35;100831.60;;;16.50
70831;BMP180;58451;51.550;7.208;2023-07-13T05:23:07;100827.60;;;16.50
70831;BMP180;58451;51.550;7.208;2023-07-13T05:24:38;100835.00;;;16.50
70831;BMP180;58451;51.550;7.208;2023-07-13T05:26:10;100828.40;;;16.54
70831;BMP180;58451;51.550;7.208;2023-07-13T05:27:41;100834.80;;;16.60
70831;BMP180;58451;51.550;7.208;2023-07-13T05:29:13;100834.00;;;16.62
70831;BMP180;58451;51.550;7.208;2023-07-13T05:30:49;100839.20;;;16.70
70831;BMP180;58451;51.550;7.208;2023-07-13T05:32:20;100836.20;;;16.78
70831;BMP180;58451;51.550;7.208;2023-07-13T05:33:51;100844.20;;;16.80
70831;BMP180;58451;51.550;7.208;2023-07-13T05:35:23;100843.00;;;16.80
70831;BMP180;58451;51.550;7.208;2023-07-13T05:36:55;100844.00;;;16.80
70831;BMP180;58451;51.550;7.208;2023-07-13T05:38:27;100848.00;;;16.90
70831;BMP180;58451;51.550;7.208;2023-07-13T05:39:59;100849.80;;;16.90
70831;BMP180;58451;51.550;7.208;2023-07-13T05:41:30;100847.20;;;16.90
70831;BMP180;58451;51.550;7.208;2023-07-13T05:43:01;100849.60;;;16.98
70831;BMP180;58451;51.550;7.208;2023-07-13T05:44:33;100849.80;;;17.00
70831;BMP180;58451;51.550;7.208;2023-07-13T05:46:04;100849.40;;;17.10
70831;BMP180;58451;51.550;7.208;2023-07-13T05:47:35;100849.60;;;17.10
70831;BMP180;58451;51.550;7.208;2023-07-13T05:49:06;100852.40;;;17.10
70831;BMP180;58451;51.550;7.208;2023-07-13T05:50:37;100853.00;;;17.10
70831;BMP180;58451;51.550;7.208;2023-07-13T05:52:08;100851.80;;;17.16
70831;BMP180;58451;51.550;7.208;2023-07-13T05:53:39;100853.40;;;17.10
70831;BMP180;58451;51.550;7.208;2023-07-13T05:55:11;100851.60;;;17.20
70831;BMP180;58451;51.550;7.208;2023-07-13T05:56:42;100854.60;;;17.20
70831;BMP180;58451;51.550;7.208;2023-07-13T05:58:13;100853.40;;;17.20
70831;BMP180;58451;51.550;7.208;2023-07-13T05:59:45;100858.60;;;17.30
70831;BMP180;58451;51.550;7.208;2023-07-13T06:01:16;100855.00;;;17.30
70831;BMP180;58451;51.550;7.208;2023-07-13T06:02:49;100858.40;;;17.40
70831;BMP180;58451;51.550;7.208;2023-07-13T06:04:21;100864.40;;;17.50
70831;BMP180;58451;51.550;7.208;2023-07-13T06:05:52;100867.80;;;17.54
70831;BMP180;58451;51.550;7.208;2023-07-13T06:07:23;100873.20;;;17.60
70831;BMP180;58451;51.550;7.208;2023-07-13T06:08:54;100874.80;;;17.62
70831;BMP180;58451;51.550;7.208;2023-07-13T06:10:25;100881.40;;;17.60
70831;BMP180;58451;51.550;7.208;2023-07-13T06:11:57;100880.80;;;17.52
70831;BMP180;58451;51.550;7.208;2023-07-13T06:13:28;100875.80;;;17.40
70831;BMP180;58451;51.550;7.208;2023-07-13T06:14:59;100884.60;;;17.50
70831;BMP180;58451;51.550;7.208;2023-07-13T06:16:30;100895.80;;;17.60
70831;BMP180;58451;51.550;7.208;2023-07-13T06:18:02;100894.60;;;17.50
70831;BMP180;58451;51.550;7.208;2023-07-13T06:19:34;100892.80;;;17.50
70831;BMP180;58451;51.550;7.208;2023-07-13T06:21:09;100890.40;;;17.42
70831;BMP180;58451;51.550;7.208;2023-07-13T06:22:41;100892.60;;;17.50
70831;BMP180;58451;51.550;7.208;2023-07-13T06:24:12;100891.20;;;17.60
70831;BMP180;58451;51.550;7.208;2023-07-13T06:25:43;100894.20;;;17.70
70831;BMP180;58451;51.550;7.208;2023-07-13T06:27:15;100891.20;;;17.70
70831;BMP180;58451;51.550;7.208;2023-07-13T06:28:47;100885.60;;;17.70
70831;BMP180;58451;51.550;7.208;2023-07-13T06:30:18;100885.80;;;17.80
70831;BMP180;58451;51.550;7.208;2023-07-13T06:31:49;100891.20;;;17.80
70831;BMP180;58451;51.550;7.208;2023-07-13T06:33:21;100891.60;;;18.00
70831;BMP180;58451;51.550;7.208;2023-07-13T06:34:52;100887.40;;;18.14
70831;BMP180;58451;51.550;7.208;2023-07-13T06:36:23;100895.00;;;18.26
70831;BMP180;58451;51.550;7.208;2023-07-13T06:37:54;100894.00;;;18.36
70831;BMP180;58451;51.550;7.208;2023-07-13T06:39:25;100905.20;;;18.50
70831;BMP180;58451;51.550;7.208;2023-07-13T06:40:57;100904.00;;;18.50
70831;BMP180;58451;51.550;7.208;2023-07-13T06:42:28;100907.80;;;18.50
70831;BMP180;58451;51.550;7.208;2023-07-13T06:43:59;100905.20;;;18.46
70831;BMP180;58451;51.550;7.208;2023-07-13T06:45:40;100911.00;;;18.40
70831;BMP180;58451;51.550;7.208;2023-07-13T06:47:11;100910.00;;;18.30
70831;BMP180;58451;51.550;7.208;2023-07-13T06:48:42;100905.40;;;18.24
70831;BMP180;58451;51.550;7.208;2023-07-13T06:50:13;100905.60;;;18.34
70831;BMP180;58451;51.550;7.208;2023-07-13T06:51:45;100908.80;;;18.40
70831;BMP180;58451;51.550;7.208;2023-07-13T06:53:18;100917.00;;;18.48
70831;BMP180;58451;51.550;7.208;2023-07-13T06:54:49;100915.20;;;18.40
70831;BMP180;58451;51.550;7.208;2023-07-13T06:56:20;100917.60;;;18.30
70831;BMP180;58451;51.550;7.208;2023-07-13T06:57:52;100916.60;;;18.36
70831;BMP180;58451;51.550;7.208;2023-07-13T06:59:23;100918.00;;;18.40
70831;BMP180;58451;51.550;7.208;2023-07-13T07:00:54;100913.00;;;18.40
70831;BMP180;58451;51.550;7.208;2023-07-13T07:02:26;100920.20;;;18.40
70831;BMP180;58451;51.550;7.208;2023-07-13T07:03:58;100912.00;;;18.30
70831;BMP180;58451;51.550;7.208;2023-07-13T07:05:29;100911.20;;;18.26
70831;BMP180;58451;51.550;7.208;2023-07-13T07:07:00;100909.40;;;18.30
70831;BMP180;58451;51.550;7.208;2023-07-13T07:08:31;100913.20;;;18.22
70831;BMP180;58451;51.550;7.208;2023-07-13T07:10:02;100911.20;;;18.22
70831;BMP180;58451;51.550;7.208;2023-07-13T07:11:34;100912.60;;;18.30
70831;BMP180;58451;51.550;7.208;2023-07-13T07:13:05;100911.20;;;18.34
70831;BMP180;58451;51.550;7.208;2023-07-13T07:14:36;100918.00;;;18.40
70831;BMP180;58451;51.550;7.208;2023-07-13T07:16:08;100917.60;;;18.50
70831;BMP180;58451;51.550;7.208;2023-07-13T07:17:39;100916.00;;;18.60
70831;BMP180;58451;51.550;7.208;2023-07-13T07:19:10;100919.20;;;18.70
70831;BMP180;58451;51.550;7.208;2023-07-13T07:20:41;100918.00;;;18.90
70831;BMP180;58451;51.550;7.208;2023-07-13T07:22:13;100912.20;;;19.10
70831;BMP180;58451;51.550;7.208;2023-07-13T07:23:44;100911.40;;;19.28
70831;BMP180;58451;51.550;7.208;2023-07-13T07:25:15;100913.60;;;19.38
70831;BMP180;58451;51.550;7.208;2023-07-13T07:26:47;100913.40;;;19.50
70831;BMP180;58451;51.550;7.208;2023-07-13T07:28:21;100917.60;;;19.52
70831;BMP180;58451;51.550;7.208;2023-07-13T07:29:55;100921.00;;;19.60
70831;BMP180;58451;51.550;7.208;2023-07-13T07:31:48;100918.40;;;19.70
70831;BMP180;58451;51.550;7.208;2023-07-13T07:33:34;100909.20;;;19.72
70831;BMP180;58451;51.550;7.208;2023-07-13T07:35:06;100913.80;;;19.90
70831;BMP180;58451;51.550;7.208;2023-07-13T07:36:37;100914.40;;;20.04
70831;BMP180;58451;51.550;7.208;2023-07-13T07:38:11;100916.20;;;20.16
70831;BMP180;58451;51.550;7.208;2023-07-13T07:39:43;100921.00;;;20.20
70831;BMP180;58451;51.550;7.208;2023-07-13T07:41:35;100924.40;;;20.10
70831;BMP180;58451;51.550;7.208;2023-07-13T07:43:11;100928.60;;;20.00
70831;BMP180;58451;51.550;7.208;2023-07-13T07:44:43;100928.00;;;19.88
70831;BMP180;58451;51.550;7.208;2023-07-13T07:46:14;100924.00;;;19.72
70831;BMP180;58451;51.550;7.208;2023-07-13T07:47:46;100926.80;;;19.72
70831;BMP180;58451;51.550;7.208;2023-07-13T07:49:18;100926.20;;;19.80
70831;BMP180;58451;51.550;7.208;2023-07-13T07:50:49;100925.20;;;19.94
70831;BMP180;58451;51.550;7.208;2023-07-13T07:52:20;100927.80;;;20.00
70831;BMP180;58451;51.550;7.208;2023-07-13T07:53:52;100921.00;;;20.10
70831;BMP180;58451;51.550;7.208;2023-07-13T07:55:24;100929.60;;;20.20
70831;BMP180;58451;51.550;7.208;2023-07-13T07:57:00;100923.80;;;20.10
70831;BMP180;58451;51.550;7.208;2023-07-13T07:58:51;100925.80;;;20.30
70831;BMP180;58451;51.550;7.208;2023-07-13T08:00:25;100918.60;;;20.20
70831;BMP180;58451;51.550;7.208;2023-07-13T08:02:16;100913.00;;;20.20
70831;BMP180;58451;51.550;7.208;2023-07-13T08:04:07;100918.60;;;20.20
70831;BMP180;58451;51.550;7.208;2023-07-13T08:05:58;100912.40;;;20.40
70831;BMP180;58451;51.550;7.208;2023-07-13T08:07:49;100918.80;;;20.62
70831;BMP180;58451;51.550;7.208;2023-07-13T08:09:21;100916.60;;;20.78
70831;BMP180;58451;51.550;7.208;2023-07-13T08:10:53;100920.40;;;20.90
70831;BMP180;58451;51.550;7.208;2023-07-13T08:12:30;100919.20;;;21.10
70831;BMP180;58451;51.550;7.208;2023-07-13T08:14:07;100922.80;;;21.20
70831;BMP180;58451;51.550;7.208;2023-07-13T08:15:38;100917.80;;;21.16
70831;BMP180;58451;51.550;7.208;2023-07-13T08:17:09;100917.80;;;21.28
70831;BMP180;58451;51.550;7.208;2023-07-13T08:18:40;100920.00;;;21.40
70831;BMP180;58451;51.550;7.208;2023-07-13T08:20:11;100927.40;;;21.40
70831;BMP180;58451;51.550;7.208;2023-07-13T08:21:42;100923.20;;;21.54
70831;BMP180;58451;51.550;7.208;2023-07-13T08:23:14;100928.00;;;21.70
70831;BMP180;58451;51.550;7.208;2023-07-13T08:24:46;100924.60;;;21.78
70831;BMP180;58451;51.550;7.208;2023-07-13T08:26:18;100926.00;;;21.90
70831;BMP180;58451;51.550;7.208;2023-07-13T08:27:49;100926.20;;;21.90
70831;BMP180;58451;51.550;7.208;2023-07-13T08:29:20;100931.80;;;21.70
70831;BMP180;58451;51.550;7.208;2023-07-13T08:30:51;100928.60;;;21.50
70831;BMP180;58451;51.550;7.208;2023-07-13T08:32:23;100927.60;;;21.54
70831;BMP180;58451;51.550;7.208;2023-07-13T08:33:54;100928.80;;;21.50
70831;BMP180;58451;51.550;7.208;2023-07-13T08:35:25;100922.60;;;21.60
70831;BMP180;58451;51.550;7.208;2023-07-13T08:36:57;100923.40;;;21.70
70831;BMP180;58451;51.550;7.208;2023-07-13T08:38:28;100924.40;;;21.80
70831;BMP180;58451;51.550;7.208;2023-07-13T08:39:59;100922.00;;;21.80
70831;BMP180;58451;51.550;7.208;2023-07-13T08:41:30;100929.20;;;21.88
70831;BMP180;58451;51.550;7.208;2023-07-13T08:43:02;100928.40;;;21.74
70831;BMP180;58451;51.550;7.208;2023-07-13T08:46:44;100917.00;;;21.50
70831;BMP180;58451;51.550;7.208;2023-07-13T08:48:33;100921.40;;;21.60
70831;BMP180;58451;51.550;7.208;2023-07-13T08:50:11;100923.20;;;21.60